Richmond Heights, Missouri
Current Conditions -  °F | °C
As of 12:51 PM on Monday 20 Oct 2014 (Local Time) from KSTL Reporting Station
Clear Clear  
Wind Chill: 72°   Ceiling: Unl
Heat Index: 72°   Visibility: 10mi
Dew Point: 51°   Wind: 14mph
Humidity: 48%   Direction: 310°NW
Pressure: 29.97"   Gusts: NA
Location:  38.63°N, 90.32°W
Report Text: KSTL 201751Z 31012KT 10SM CLR 22/11 A2997 RMK AO2 SLP145 T02220106 10222 20128 58004
Loading
Personal Weather Stations






























Interactive Weather Map
Tropical Storm Tracking
New forecast layout! Learn more

10-Day Weather Forecast

Advertisements
Track Severe Weather on mobile